Have a Safe July 4th! 

Flight Track Log - Related Links

Times and Time Zones

All times are in EDT time to prevent confusion due to time zone crossing. See the DAL1288 flight status page for this flight to view local times or setup timezone preferences in your user account.

Time Position Orientation Groundspeed Altitude Reporting Facility
EDT Latitude Longitude Course Direction KTS MPH feet Rate Location/Type
Tue 09:59:24 PM 42.2106 -83.3650 North 150 173 1,200  Level Cleveland Center
Tue 09:59:36 PM 42.2036 -83.3725 219° Southwest 152 175 1,900 2,384 Climbing Cleveland Center
Tue 10:00:37 PM 42.1719 -83.4272 232° Southwest 222 255 4,100 2,360 Climbing Cleveland Center
Tue 10:01:05 PM 42.1750 -83.4669 276° West 221 254 5,400 3,300 Climbing Cleveland Center
Tue 10:01:37 PM 42.1858 -83.5164 286° West 266 306 7,400 4,131 Climbing Cleveland Center
Tue 10:02:00 PM 42.5078 -83.3500 North  Level FlightAware Approximate
Tue 10:02:06 PM 42.2025 -83.5597 297° West 267 307 9,600  Level Cleveland Center
Tue 10:03:00 PM 42.6104 -83.3500 North  Level FlightAware Approximate
Tue 10:03:08 PM 42.2619 -83.6078 329° Northwest 302 348 11,100  Level Cleveland Center
Tue 10:04:00 PM 42.7130 -83.3500 North  Level FlightAware Approximate
Tue 10:04:09 PM 42.3675 -83.5889 North 377 434 13,500  Level Cleveland Center
Tue 10:05:10 PM 42.5017 -83.5778 North 404 465 17,100 3,024 Climbing Cleveland Center
Tue 10:06:12 PM 42.6114 -83.6311 340° North 415 478 19,700 2,244 Climbing Cleveland Center
Tue 10:07:13 PM 42.7233 -83.6847 341° North 422 486 21,700 1,820 Climbing Cleveland Center
Tue 10:08:14 PM 42.8419 -83.7417 341° North 448 516 23,400 1,122 Climbing Cleveland Center
Tue 10:09:16 PM 42.9617 -83.7994 341° North 452 520 24,000 208 Climbing Cleveland Center
Tue 10:11:07 PM 43.1761 -83.9033 341° North 459 528 24,000  Level Minneapolis Center
Tue 10:12:09 PM 43.3214 -83.9736 341° North 459 528 24,000  Level Minneapolis Center
Tue 10:13:10 PM 43.4406 -84.0325 340° North 459 528 24,000  Level Minneapolis Center
Tue 10:14:12 PM 43.5600 -84.0939 340° North 459 528 24,000  Level Minneapolis Center
Tue 10:15:13 PM 43.6608 -84.2011 322° Northwest 462 532 24,000 -45 Level Minneapolis Center
Tue 10:16:26 PM 43.7775 -84.3311 321° Northwest 457 526 23,900 -940 Descending Cleveland Center
Tue 10:17:27 PM 43.8733 -84.4386 321° Northwest 448 516 21,900 -2,162 Descending Cleveland Center
Tue 10:18:17 PM 43.9472 -84.5228 321° Northwest 441 507 19,900 -2,919 Descending Minneapolis Center
Tue 10:19:18 PM 44.0481 -84.6369 321° Northwest 410 472 16,500 -2,878 Descending Minneapolis Center
Tue 10:20:20 PM 44.1214 -84.7200 321° Northwest 396 456 14,000 -2,488 Descending Minneapolis Center
Tue 10:21:21 PM 44.2025 -84.8133 320° Northwest 385 443 11,400 -1,918 Descending Minneapolis Center
Tue 10:22:22 PM 44.2892 -84.9122 321° Northwest 347 399 10,100 -1,279 Descending Minneapolis Center
Tue 10:23:23 PM 44.3508 -84.9839 320° Northwest 300 345 8,800 -1,463 Descending Minneapolis Center
Tue 10:24:25 PM 44.4108 -85.0519 321° Northwest 285 328 7,100 -1,659 Descending Minneapolis Center
Tue 10:25:26 PM 44.4694 -85.1203 320° Northwest 282 325 5,400 -1,525 Descending Minneapolis Center
Tue 10:26:27 PM 44.5264 -85.1856 321° Northwest 271 312 4,000 -1,024 Descending Minneapolis Center
Tue 10:27:29 PM 44.5814 -85.2494 320° Northwest 268 308 3,300 -488 Descending Minneapolis Center
Tue 10:28:30 PM 44.6283 -85.3056 320° Northwest 246 283 3,000 -148 Descending Minneapolis Center
Tue 10:29:31 PM 44.6742 -85.3583 321° Northwest 229 264 3,000 -148 Level Minneapolis Center
Tue 10:30:32 PM 44.7194 -85.4117 320° Northwest 220 253 2,700 -585 Descending Minneapolis Center
Tue 10:31:34 PM 44.7364 -85.4767 290° West 175 201 1,800 -780 Descending Minneapolis Center
Tue 10:32:35 PM 44.7386 -85.5244 274° West 142 163 1,100 -689 Descending Minneapolis Center

Login

Don't have an account? Register now (free) for customized features, flight alerts, and more!